createdAt,value
2018-06-29T00:00:41.986Z,13.90
2018-06-29T00:03:13.790Z,13.70
2018-06-29T00:05:45.604Z,13.60
2018-06-29T00:08:17.349Z,13.60
2018-06-29T00:10:49.220Z,13.60
2018-06-29T00:13:21.066Z,13.70
2018-06-29T00:15:52.917Z,13.70
2018-06-29T00:18:25.051Z,13.70
2018-06-29T00:20:56.850Z,13.70
2018-06-29T00:23:28.630Z,13.70
2018-06-29T00:26:00.367Z,13.70
2018-06-29T00:28:32.171Z,13.50
2018-06-29T00:31:04.590Z,13.50
2018-06-29T00:33:36.482Z,13.40
2018-06-29T00:36:08.362Z,13.40
2018-06-29T00:38:40.059Z,13.40
2018-06-29T00:41:11.849Z,13.50
2018-06-29T00:43:43.627Z,13.30
2018-06-29T00:48:49.579Z,13.30
2018-06-29T00:51:21.422Z,13.30
2018-06-29T00:53:53.337Z,13.30
2018-06-29T00:56:25.210Z,13.30
2018-06-29T00:58:57.050Z,13.30
2018-06-29T01:01:28.829Z,13.30
2018-06-29T01:04:00.630Z,13.30
2018-06-29T01:06:32.539Z,13.20
2018-06-29T01:09:04.451Z,13.40
2018-06-29T01:11:36.162Z,13.40
2018-06-29T01:14:08.236Z,13.40
2018-06-29T01:16:40.026Z,13.30
2018-06-29T01:19:11.835Z,13.50
2018-06-29T01:21:43.638Z,13.60
2018-06-29T01:24:15.415Z,13.60
2018-06-29T01:26:47.330Z,13.40
2018-06-29T01:29:19.469Z,13.50
2018-06-29T01:31:51.193Z,13.40
2018-06-29T01:36:54.166Z,13.30
2018-06-29T01:39:25.871Z,13.30
2018-06-29T01:41:57.517Z,13.40
2018-06-29T01:44:29.304Z,13.30
2018-06-29T01:47:01.370Z,13.30
2018-06-29T01:49:33.123Z,13.30
2018-06-29T01:52:04.878Z,13.30
2018-06-29T01:54:36.770Z,13.20
2018-06-29T01:59:39.604Z,13.20
2018-06-29T02:02:11.406Z,13.30
2018-06-29T02:04:43.141Z,13.40
2018-06-29T02:07:14.859Z,13.50
2018-06-29T02:09:46.595Z,13.60
2018-06-29T02:12:18.408Z,13.60
2018-06-29T02:14:50.469Z,13.40
2018-06-29T02:17:22.310Z,13.20
2018-06-29T02:19:54.050Z,13.40
2018-06-29T02:22:25.790Z,13.40
2018-06-29T02:24:57.524Z,13.50
2018-06-29T02:27:29.218Z,13.50
2018-06-29T02:30:00.976Z,13.50
2018-06-29T02:32:32.650Z,13.50
2018-06-29T02:35:04.522Z,13.60
2018-06-29T02:37:36.273Z,13.60
2018-06-29T02:40:08.218Z,13.40
2018-06-29T02:42:39.875Z,13.20
2018-06-29T02:45:11.679Z,13.20
2018-06-29T02:47:43.550Z,13.30
2018-06-29T02:52:46.550Z,13.20
2018-06-29T02:55:18.359Z,13.20
2018-06-29T02:57:49.973Z,13.10
2018-06-29T03:00:21.981Z,13.20
2018-06-29T03:02:54.091Z,13.20
2018-06-29T03:05:25.904Z,13.10
2018-06-29T03:07:57.784Z,13.00
2018-06-29T03:10:29.982Z,13.10
2018-06-29T03:13:01.767Z,13.20
2018-06-29T03:15:33.577Z,13.20
2018-06-29T03:18:05.332Z,13.10
2018-06-29T03:20:37.296Z,13.10
2018-06-29T03:23:09.635Z,13.00
2018-06-29T03:25:41.550Z,12.90
2018-06-29T03:28:13.549Z,12.90
2018-06-29T03:30:45.392Z,13.00
2018-06-29T03:33:17.095Z,12.90
2018-06-29T03:35:48.930Z,12.80
2018-06-29T03:38:20.761Z,12.90
2018-06-29T03:40:52.566Z,13.00
2018-06-29T03:43:24.373Z,13.20
2018-06-29T03:45:56.130Z,13.20
2018-06-29T03:48:28.155Z,13.10
2018-06-29T03:50:59.986Z,13.10
2018-06-29T03:53:31.802Z,13.10
2018-06-29T03:56:04.584Z,13.20
2018-06-29T03:58:36.327Z,13.30
2018-06-29T04:01:08.217Z,13.30
2018-06-29T04:03:39.929Z,13.40
2018-06-29T04:06:12.370Z,13.40
2018-06-29T04:08:44.147Z,13.40
2018-06-29T04:11:15.846Z,13.20
2018-06-29T04:13:47.602Z,13.20
2018-06-29T04:16:19.369Z,13.10
2018-06-29T04:18:51.161Z,13.30
2018-06-29T04:21:22.887Z,13.20
2018-06-29T04:23:54.541Z,13.20
2018-06-29T04:26:26.301Z,13.20
2018-06-29T04:28:58.086Z,13.20
2018-06-29T04:31:30.001Z,13.20
2018-06-29T04:34:01.775Z,13.30
2018-06-29T04:36:33.514Z,13.20
2018-06-29T04:39:08.280Z,13.40
2018-06-29T04:41:40.221Z,13.40
2018-06-29T04:44:12.021Z,13.30
2018-06-29T04:46:43.795Z,13.30
2018-06-29T04:49:15.862Z,13.40
2018-06-29T04:51:47.709Z,13.30
2018-06-29T04:54:19.523Z,13.50
2018-06-29T04:56:52.029Z,13.60
2018-06-29T04:59:23.749Z,13.50
2018-06-29T05:01:55.527Z,13.40
2018-06-29T05:04:27.209Z,13.50
2018-06-29T05:09:30.142Z,13.50
2018-06-29T05:12:01.893Z,13.60
2018-06-29T05:14:33.669Z,13.60
2018-06-29T05:17:05.688Z,13.60
2018-06-29T05:19:37.403Z,13.70
2018-06-29T05:22:09.504Z,13.60
2018-06-29T05:24:41.225Z,13.70
2018-06-29T05:27:12.942Z,13.70
2018-06-29T05:29:44.629Z,13.60
2018-06-29T05:32:16.347Z,13.60
2018-06-29T05:34:48.062Z,13.60
2018-06-29T05:37:19.755Z,13.60
2018-06-29T05:39:52.468Z,13.70
2018-06-29T05:42:24.145Z,13.70
2018-06-29T05:44:55.825Z,13.70
2018-06-29T05:47:27.566Z,13.80
2018-06-29T05:49:59.255Z,13.80
2018-06-29T05:52:31.298Z,13.70
2018-06-29T05:55:02.981Z,13.70
2018-06-29T05:57:34.846Z,13.90
2018-06-29T06:00:07.698Z,13.90
2018-06-29T06:02:39.502Z,14.00
2018-06-29T06:05:11.538Z,14.10
2018-06-29T06:07:43.323Z,14.10
2018-06-29T06:10:15.022Z,14.20
2018-06-29T06:12:46.707Z,14.20
2018-06-29T06:15:18.325Z,14.20
2018-06-29T06:17:50.051Z,14.10
2018-06-29T06:20:21.698Z,14.00
2018-06-29T06:22:53.583Z,14.10
2018-06-29T06:27:56.596Z,14.20
2018-06-29T06:30:28.286Z,14.30
2018-06-29T06:33:00.125Z,14.30
2018-06-29T06:35:32.115Z,14.40
2018-06-29T06:38:04.114Z,14.30
2018-06-29T06:40:35.917Z,14.40
2018-06-29T06:43:07.609Z,14.30
2018-06-29T06:45:39.346Z,14.20
2018-06-29T06:48:11.094Z,14.20
2018-06-29T06:50:42.780Z,14.40
2018-06-29T06:53:14.625Z,14.40
2018-06-29T06:55:46.358Z,14.50
2018-06-29T06:58:18.151Z,14.50
2018-06-29T07:00:49.959Z,14.50
2018-06-29T07:03:21.658Z,14.60
2018-06-29T07:05:53.335Z,14.50
2018-06-29T07:08:25.065Z,14.50
2018-06-29T07:10:56.908Z,14.70
2018-06-29T07:13:28.694Z,14.80
2018-06-29T07:16:00.443Z,14.50
2018-06-29T07:18:32.294Z,14.60
2018-06-29T07:21:04.226Z,14.70
2018-06-29T07:23:35.978Z,14.70
2018-06-29T07:26:07.768Z,14.70
2018-06-29T07:28:39.493Z,14.70
2018-06-29T07:31:11.113Z,14.80
2018-06-29T07:33:42.835Z,14.70
2018-06-29T07:36:14.997Z,14.70
2018-06-29T07:38:46.827Z,14.60
2018-06-29T07:41:18.539Z,14.60
2018-06-29T07:43:50.216Z,14.60
2018-06-29T07:46:21.924Z,14.80
2018-06-29T07:48:53.645Z,14.90
2018-06-29T07:51:25.396Z,15.00
2018-06-29T07:53:57.092Z,14.90
2018-06-29T07:56:28.777Z,15.00
2018-06-29T07:59:00.495Z,15.10
2018-06-29T08:01:32.140Z,15.20
2018-06-29T08:04:04.155Z,15.10
2018-06-29T08:06:35.927Z,15.00
2018-06-29T08:09:11.095Z,15.20
2018-06-29T08:11:42.742Z,15.30
2018-06-29T08:14:14.418Z,15.30
2018-06-29T08:16:46.140Z,15.40
2018-06-29T08:19:17.800Z,15.50
2018-06-29T08:21:50.314Z,15.50
2018-06-29T08:24:22.063Z,15.60
2018-06-29T08:26:53.863Z,15.70
2018-06-29T08:29:25.635Z,15.80
2018-06-29T08:31:57.318Z,15.90
2018-06-29T08:34:29.023Z,15.80
2018-06-29T08:37:00.763Z,15.50
2018-06-29T08:39:32.542Z,15.60
2018-06-29T08:42:04.243Z,15.80
2018-06-29T08:44:35.947Z,16.00
2018-06-29T08:47:07.953Z,16.10
2018-06-29T08:49:39.868Z,16.10
2018-06-29T08:52:11.492Z,16.10
2018-06-29T08:54:43.286Z,16.10
2018-06-29T08:59:46.055Z,16.00
2018-06-29T09:02:17.827Z,16.00
2018-06-29T09:04:49.497Z,16.20
2018-06-29T09:09:52.402Z,16.00
2018-06-29T09:12:24.230Z,16.00
2018-06-29T09:14:56.057Z,16.10
2018-06-29T09:17:27.814Z,16.20
2018-06-29T09:19:59.574Z,16.10
2018-06-29T09:22:31.362Z,16.00
2018-06-29T09:25:03.282Z,16.00
2018-06-29T09:27:35.006Z,16.20
2018-06-29T09:30:07.409Z,16.40
2018-06-29T09:32:39.126Z,16.50
2018-06-29T09:35:11.655Z,16.40
2018-06-29T09:37:43.466Z,16.50
2018-06-29T09:40:15.323Z,16.50
2018-06-29T09:42:47.091Z,16.60
2018-06-29T09:45:18.967Z,16.60
2018-06-29T09:47:50.896Z,16.30
2018-06-29T09:50:22.623Z,16.20
2018-06-29T09:52:54.385Z,16.30
2018-06-29T09:55:26.159Z,16.40
2018-06-29T09:57:58.147Z,16.50
2018-06-29T10:00:30.968Z,16.50
2018-06-29T10:03:03.129Z,16.50
2018-06-29T10:05:34.922Z,16.60
2018-06-29T10:08:06.807Z,16.60
2018-06-29T10:10:38.615Z,16.70
2018-06-29T10:13:10.377Z,16.90
2018-06-29T10:15:42.137Z,17.00
2018-06-29T10:18:13.980Z,17.10
2018-06-29T10:20:45.824Z,17.10
2018-06-29T10:23:17.643Z,16.90
2018-06-29T10:25:49.451Z,17.10
2018-06-29T10:28:21.173Z,17.30
2018-06-29T10:30:52.972Z,17.20
2018-06-29T10:33:24.743Z,17.10
2018-06-29T10:35:56.636Z,17.00
2018-06-29T10:38:28.885Z,16.90
2018-06-29T10:41:00.809Z,17.10
2018-06-29T10:43:32.517Z,17.10
2018-06-29T10:46:04.323Z,16.90
2018-06-29T10:48:36.147Z,16.90
2018-06-29T10:51:08.035Z,17.00
2018-06-29T10:53:39.809Z,16.90
2018-06-29T10:56:11.674Z,17.00
2018-06-29T10:58:43.512Z,17.10
2018-06-29T11:01:15.342Z,17.00
2018-06-29T11:03:47.365Z,17.10
2018-06-29T11:06:19.125Z,17.20
2018-06-29T11:08:50.858Z,17.10
2018-06-29T11:11:22.614Z,16.90
2018-06-29T11:13:54.421Z,16.70
2018-06-29T11:16:26.091Z,16.70
2018-06-29T11:18:57.719Z,16.60
2018-06-29T11:21:29.454Z,16.70
2018-06-29T11:24:01.163Z,16.80
2018-06-29T11:26:32.914Z,16.90
2018-06-29T11:29:04.649Z,17.00
2018-06-29T11:31:36.322Z,17.10
2018-06-29T11:34:07.982Z,17.20
2018-06-29T11:36:39.676Z,17.20
2018-06-29T11:39:13.872Z,17.50
2018-06-29T11:41:45.735Z,17.60
2018-06-29T11:44:17.427Z,17.60
2018-06-29T11:46:49.105Z,17.70
2018-06-29T11:49:20.771Z,17.80
2018-06-29T11:51:52.577Z,17.70
2018-06-29T11:54:24.385Z,17.70
2018-06-29T11:56:56.088Z,17.70
2018-06-29T11:59:27.762Z,17.70
2018-06-29T12:01:59.486Z,17.60
2018-06-29T12:04:31.186Z,17.60
2018-06-29T12:07:02.990Z,17.50
2018-06-29T12:09:34.624Z,17.60
2018-06-29T12:12:06.386Z,17.70
2018-06-29T12:14:38.213Z,17.80
2018-06-29T12:17:09.910Z,18.20
2018-06-29T12:19:41.557Z,18.30
2018-06-29T12:22:13.272Z,18.20
2018-06-29T12:24:44.985Z,18.40
2018-06-29T12:27:16.753Z,18.50
2018-06-29T12:29:48.478Z,18.50
2018-06-29T12:32:20.228Z,18.50
2018-06-29T12:34:52.299Z,18.60
2018-06-29T12:39:55.323Z,19.10
2018-06-29T12:42:27.083Z,18.90
2018-06-29T12:44:58.746Z,18.90
2018-06-29T12:50:01.482Z,18.80
2018-06-29T12:52:33.249Z,18.90
2018-06-29T12:55:05.045Z,18.90
2018-06-29T12:57:36.850Z,18.90
2018-06-29T13:00:09.137Z,19.10
2018-06-29T13:02:40.840Z,19.40
2018-06-29T13:05:12.673Z,19.70
2018-06-29T13:07:44.628Z,19.50
2018-06-29T13:10:16.435Z,19.60
2018-06-29T13:12:48.186Z,19.70
2018-06-29T13:15:20.012Z,19.70
2018-06-29T13:17:51.862Z,19.40
2018-06-29T13:20:24.267Z,19.80
2018-06-29T13:22:56.104Z,20.50
2018-06-29T13:25:27.788Z,20.50
2018-06-29T13:27:59.575Z,20.70
2018-06-29T13:30:31.298Z,20.70
2018-06-29T13:33:03.039Z,20.90
2018-06-29T13:35:34.804Z,21.70
2018-06-29T13:38:06.656Z,21.50
2018-06-29T13:40:38.426Z,21.30
2018-06-29T13:43:10.243Z,21.10
2018-06-29T13:48:13.135Z,22.00
2018-06-29T13:50:44.837Z,21.80
2018-06-29T13:53:16.613Z,22.20
2018-06-29T13:55:48.458Z,23.10
2018-06-29T13:58:20.357Z,22.80
2018-06-29T14:00:52.082Z,23.00
2018-06-29T14:03:23.809Z,23.10
2018-06-29T14:05:56.001Z,23.30
2018-06-29T14:08:27.832Z,22.80
2018-06-29T14:10:59.674Z,23.10
2018-06-29T14:13:31.491Z,23.80
2018-06-29T14:16:03.281Z,24.00
2018-06-29T14:18:35.178Z,24.30
2018-06-29T14:21:07.236Z,23.80
2018-06-29T14:23:38.986Z,24.00
2018-06-29T14:26:13.949Z,24.00
2018-06-29T14:28:45.769Z,24.50
2018-06-29T14:31:17.535Z,24.70
2018-06-29T14:33:49.426Z,24.60
2018-06-29T14:36:21.081Z,24.10
2018-06-29T14:38:52.926Z,24.30
2018-06-29T14:41:24.631Z,23.90
2018-06-29T14:43:56.814Z,24.10
2018-06-29T14:46:28.508Z,24.20
2018-06-29T14:49:00.287Z,23.70
2018-06-29T14:51:34.751Z,23.40
2018-06-29T14:54:06.562Z,23.10
2018-06-29T14:56:38.333Z,23.30
2018-06-29T14:59:10.128Z,22.90
2018-06-29T15:01:41.859Z,23.20
2018-06-29T15:04:13.685Z,23.30
2018-06-29T15:06:45.356Z,23.40
2018-06-29T15:09:17.092Z,23.20
2018-06-29T15:11:49.283Z,23.40
2018-06-29T15:14:20.997Z,23.50
2018-06-29T15:16:52.761Z,23.90
2018-06-29T15:19:24.391Z,24.10
2018-06-29T15:21:56.374Z,23.90
2018-06-29T15:24:28.026Z,24.10
2018-06-29T15:26:59.748Z,24.50
2018-06-29T15:29:31.526Z,24.70
2018-06-29T15:32:03.146Z,24.00
2018-06-29T15:34:34.794Z,24.10
2018-06-29T15:39:37.543Z,23.20
2018-06-29T15:42:09.183Z,22.70
2018-06-29T15:44:40.875Z,22.40
2018-06-29T15:47:12.514Z,22.00
2018-06-29T15:49:44.305Z,22.00
2018-06-29T15:52:16.102Z,22.30
2018-06-29T15:54:47.783Z,22.40
2018-06-29T15:57:23.968Z,22.50
2018-06-29T15:59:55.646Z,22.90
2018-06-29T16:02:27.275Z,22.70
2018-06-29T16:04:58.901Z,21.80
2018-06-29T16:07:30.543Z,21.50
2018-06-29T16:10:02.106Z,21.20
2018-06-29T16:15:05.434Z,20.90
2018-06-29T16:17:37.322Z,20.80
2018-06-29T16:20:09.445Z,20.70
2018-06-29T16:22:41.137Z,20.60
2018-06-29T16:25:12.824Z,20.50
2018-06-29T16:27:44.499Z,20.50
2018-06-29T16:30:16.236Z,20.50
2018-06-29T16:35:19.043Z,20.30
2018-06-29T16:37:50.645Z,20.30
2018-06-29T16:40:22.322Z,20.20
2018-06-29T16:42:54.846Z,20.20
2018-06-29T16:45:29.716Z,20.40
2018-06-29T16:48:02.685Z,20.20
2018-06-29T16:50:34.413Z,20.20
2018-06-29T16:53:06.721Z,20.20
2018-06-29T16:55:38.439Z,20.10
2018-06-29T16:58:10.191Z,20.20
2018-06-29T17:00:41.913Z,20.20
2018-06-29T17:03:13.517Z,20.20
2018-06-29T17:05:45.288Z,20.40
2018-06-29T17:08:19.481Z,20.90
2018-06-29T17:10:52.281Z,21.50
2018-06-29T17:13:24.016Z,22.20
2018-06-29T17:15:56.423Z,22.00
2018-06-29T17:18:28.058Z,21.60
2018-06-29T17:20:59.726Z,22.20
2018-06-29T17:23:31.595Z,22.70
2018-06-29T17:26:03.227Z,23.00
2018-06-29T17:28:35.889Z,21.70
2018-06-29T17:31:07.618Z,20.90
2018-06-29T17:33:39.469Z,20.60
2018-06-29T17:36:11.345Z,20.60
2018-06-29T17:38:43.238Z,20.50
2018-06-29T17:41:15.319Z,20.40
2018-06-29T17:43:47.130Z,20.30
2018-06-29T17:46:18.753Z,20.20
2018-06-29T17:48:51.041Z,20.10
2018-06-29T17:51:23.268Z,20.00
2018-06-29T17:53:55.771Z,20.10
2018-06-29T17:56:28.926Z,20.10
2018-06-29T17:59:00.588Z,19.90
2018-06-29T18:01:32.191Z,19.80
2018-06-29T18:04:04.937Z,19.80
2018-06-29T18:06:36.725Z,19.70
2018-06-29T18:09:11.142Z,19.80
2018-06-29T18:11:42.790Z,19.70
2018-06-29T18:14:14.677Z,19.60
2018-06-29T18:16:47.009Z,19.60
2018-06-29T18:19:18.925Z,19.60
2018-06-29T18:21:50.698Z,19.70
2018-06-29T18:24:22.403Z,19.60
2018-06-29T18:26:54.146Z,19.70
2018-06-29T18:29:25.938Z,19.80
2018-06-29T18:31:58.505Z,19.80
2018-06-29T18:34:31.325Z,19.50
2018-06-29T18:37:03.119Z,19.50
2018-06-29T18:39:34.879Z,19.50
2018-06-29T18:42:07.184Z,19.40
2018-06-29T18:44:39.176Z,19.30
2018-06-29T18:47:12.009Z,19.30
2018-06-29T18:49:43.605Z,19.30
2018-06-29T18:52:15.364Z,19.30
2018-06-29T18:54:47.106Z,19.30
2018-06-29T18:57:19.130Z,19.10
2018-06-29T18:59:50.988Z,19.10
2018-06-29T19:02:23.957Z,19.20
2018-06-29T19:04:55.562Z,19.00
2018-06-29T19:07:27.303Z,19.00
2018-06-29T19:09:58.952Z,18.90
2018-06-29T19:12:31.467Z,18.80
2018-06-29T19:15:03.886Z,18.80
2018-06-29T19:17:35.810Z,18.70
2018-06-29T19:20:07.543Z,18.80
2018-06-29T19:22:39.258Z,18.70
2018-06-29T19:25:11.702Z,18.60
2018-06-29T19:27:43.585Z,18.50
2018-06-29T19:30:15.178Z,18.60
2018-06-29T19:32:46.939Z,18.70
2018-06-29T19:35:18.664Z,18.60
2018-06-29T19:37:51.035Z,18.60
2018-06-29T19:40:22.882Z,18.60
2018-06-29T19:42:55.225Z,18.50
2018-06-29T19:45:26.952Z,18.50
2018-06-29T19:47:58.738Z,18.40
2018-06-29T19:50:30.303Z,18.50
2018-06-29T19:53:01.895Z,18.40
2018-06-29T19:55:33.539Z,18.40
2018-06-29T19:58:05.306Z,18.50
2018-06-29T20:00:36.862Z,18.40
2018-06-29T20:03:09.192Z,18.40
2018-06-29T20:05:40.774Z,18.40
2018-06-29T20:08:13.076Z,18.60
2018-06-29T20:10:45.737Z,18.50
2018-06-29T20:13:17.602Z,18.40
2018-06-29T20:15:49.238Z,18.40
2018-06-29T20:18:21.095Z,18.30
2018-06-29T20:20:53.602Z,18.10
2018-06-29T20:23:25.293Z,18.00
2018-06-29T20:25:58.063Z,18.10
2018-06-29T20:28:29.702Z,18.00
2018-06-29T20:31:01.259Z,17.90
2018-06-29T20:33:32.863Z,17.80
2018-06-29T20:36:05.544Z,17.80
2018-06-29T20:38:37.358Z,17.70
2018-06-29T20:41:08.994Z,17.80
2018-06-29T20:43:40.845Z,17.80
2018-06-29T20:46:12.588Z,17.90
2018-06-29T20:48:44.355Z,17.90
2018-06-29T20:51:16.127Z,17.80
2018-06-29T20:53:48.013Z,17.70
2018-06-29T20:56:20.541Z,17.60
2018-06-29T20:58:52.185Z,17.50
2018-06-29T21:01:23.915Z,17.50
2018-06-29T21:03:55.753Z,17.60
2018-06-29T21:08:58.718Z,17.60
2018-06-29T21:11:30.393Z,17.60
2018-06-29T21:14:02.151Z,17.50
2018-06-29T21:16:33.823Z,17.30
2018-06-29T21:19:05.699Z,17.10
2018-06-29T21:21:37.456Z,17.00
2018-06-29T21:24:09.215Z,17.00
2018-06-29T21:26:40.978Z,17.10
2018-06-29T21:29:12.955Z,17.10
2018-06-29T21:31:44.638Z,17.10
2018-06-29T21:34:16.331Z,17.20
2018-06-29T21:36:48.133Z,17.30
2018-06-29T21:39:19.962Z,17.20
2018-06-29T21:41:51.652Z,17.20
2018-06-29T21:44:23.362Z,17.10
2018-06-29T21:46:55.119Z,17.00
2018-06-29T21:49:26.946Z,17.10
2018-06-29T21:51:58.599Z,17.10
2018-06-29T21:54:30.421Z,17.10
2018-06-29T21:57:02.062Z,17.20
2018-06-29T21:59:33.778Z,16.90
2018-06-29T22:02:05.695Z,16.70
2018-06-29T22:04:37.558Z,16.60
2018-06-29T22:07:09.278Z,16.60
2018-06-29T22:09:41.038Z,16.50
2018-06-29T22:12:12.787Z,16.50
2018-06-29T22:17:15.983Z,16.50
2018-06-29T22:19:47.729Z,16.70
2018-06-29T22:22:19.451Z,16.50
2018-06-29T22:24:51.155Z,16.50
2018-06-29T22:27:22.961Z,16.60
2018-06-29T22:29:54.822Z,16.30
2018-06-29T22:32:26.499Z,16.50
2018-06-29T22:34:58.246Z,16.70
2018-06-29T22:37:30.057Z,16.60
2018-06-29T22:40:01.821Z,16.50
2018-06-29T22:42:33.638Z,16.20
2018-06-29T22:45:05.711Z,16.10
2018-06-29T22:47:37.443Z,15.90
2018-06-29T22:50:09.937Z,15.80
2018-06-29T22:52:41.601Z,15.80
2018-06-29T22:55:13.407Z,16.00
2018-06-29T22:57:45.094Z,16.10
2018-06-29T23:00:16.838Z,15.90
2018-06-29T23:02:48.445Z,15.90
2018-06-29T23:05:20.443Z,15.90
2018-06-29T23:07:52.103Z,16.20
2018-06-29T23:10:23.807Z,16.30
2018-06-29T23:12:55.551Z,16.10
2018-06-29T23:15:27.255Z,16.00
2018-06-29T23:17:59.102Z,16.00
2018-06-29T23:20:30.979Z,15.90
2018-06-29T23:23:02.729Z,15.80
2018-06-29T23:25:34.485Z,15.90
2018-06-29T23:28:06.391Z,16.20
2018-06-29T23:30:38.154Z,16.30
2018-06-29T23:33:09.885Z,16.20
2018-06-29T23:35:41.606Z,16.00
2018-06-29T23:38:13.385Z,15.70
2018-06-29T23:40:45.084Z,15.50
2018-06-29T23:43:16.826Z,15.50
2018-06-29T23:45:48.546Z,15.60
2018-06-29T23:48:21.105Z,15.80
2018-06-29T23:50:52.862Z,15.90
2018-06-29T23:53:24.522Z,16.20
2018-06-29T23:55:56.263Z,16.30
2018-06-29T23:58:28.022Z,16.20
